Time;durP1;ratioP1;P1;durP2;ratioP2;P2;SDS_P1;SDS_P2;PMS_P1;PMS_P2;Temp;Humidity;BMP_temperature;BMP_pressure;BME280_temperature;BME280_humidity;BME280_pressure;Samples;Min_cycle;Max_cycle;Signal;HPM_P1;HPM_P2
2023/07/06 00:01:29;;;;;;;;;31.00;28.00;;;;;19.94;100.00;99397.47;6283612;20;3582616;-44
2023/07/06 00:03:57;;;;;;;;;30.00;28.00;;;;;20.10;100.00;99389.38;6282919;20;3580711;-50
2023/07/06 00:06:26;;;;;;;;;30.00;25.67;;;;;20.20;100.00;99397.44;6282992;20;3587757;-43
2023/07/06 00:08:54;;;;;;;;;30.67;29.67;;;;;19.95;100.00;99393.72;6285117;20;3594006;-46
2023/07/06 00:11:23;;;;;;;;;34.50;28.50;;;;;20.31;100.00;99399.88;6280845;20;3611788;-43
2023/07/06 00:13:51;;;;;;;;;26.00;25.67;;;;;20.28;100.00;99405.66;6314454;20;3587824;-44
2023/07/06 00:16:21;;;;;;;;;29.25;25.75;;;;;20.16;100.00;99401.50;6282563;20;3610770;-46
2023/07/06 00:18:50;;;;;;;;;29.00;26.00;;;;;20.10;100.00;99400.28;6309092;20;3597185;-44
2023/07/06 00:21:18;;;;;;;;;26.33;24.67;;;;;20.01;100.00;99403.13;6283497;20;3602394;-44
2023/07/06 00:23:47;;;;;;;;;28.33;26.33;;;;;20.24;100.00;99396.09;6284464;20;3603359;-44
2023/07/06 00:26:16;;;;;;;;;24.67;23.00;;;;;20.17;100.00;99387.72;6278843;20;3585645;-48
2023/07/06 00:28:48;;;;;;;;;28.00;28.00;;;;;20.16;100.00;99390.59;6277917;20;3602346;-47
2023/07/06 00:31:31;;;;;;;;;21.67;20.67;;;;;20.31;100.00;99394.41;6276708;20;3575850;-44
2023/07/06 00:34:04;;;;;;;;;26.67;25.67;;;;;20.06;100.00;99389.88;6280767;20;3590921;-45
2023/07/06 00:36:37;;;;;;;;;24.67;23.00;;;;;20.11;100.00;99388.34;6280933;20;3601423;-43
2023/07/06 00:39:07;;;;;;;;;28.67;28.00;;;;;19.99;100.00;99388.84;6279407;20;3596160;-45
2023/07/06 00:41:35;;;;;;;;;28.33;27.33;;;;;20.16;100.00;99393.31;6282647;20;3601309;-44
2023/07/06 00:44:04;;;;;;;;;27.33;27.33;;;;;20.23;100.00;99390.81;6283752;20;3579463;-46
2023/07/06 00:46:40;;;;;;;;;25.67;24.00;;;;;20.28;100.00;99389.31;6279632;20;3589857;-46
2023/07/06 00:49:17;;;;;;;;;22.00;20.67;;;;;20.45;100.00;99389.34;6283178;20;3581499;-44
2023/07/06 00:51:46;;;;;;;;;21.00;20.33;;;;;20.38;100.00;99386.44;6278862;20;2842050;-46
2023/07/06 00:54:19;;;;;;;;;26.33;25.67;;;;;20.35;100.00;99384.91;6312651;20;3600242;-46
2023/07/06 00:56:52;;;;;;;;;27.00;25.33;;;;;20.43;100.00;99388.66;6311288;20;3586707;-45
2023/07/06 00:59:26;;;;;;;;;25.33;23.33;;;;;20.42;100.00;99395.16;6281280;20;3595111;-45
2023/07/06 01:01:56;;;;;;;;;28.00;28.00;;;;;20.37;100.00;99399.22;6281682;20;3600279;-43
2023/07/06 01:04:24;;;;;;;;;29.33;28.00;;;;;20.29;100.00;99393.72;6282682;20;3584632;-47
2023/07/06 01:06:55;;;;;;;;;20.67;20.67;;;;;20.18;100.00;99380.41;6278567;20;2844109;-43
2023/07/06 01:09:29;;;;;;;;;24.33;24.00;;;;;20.34;100.00;99382.34;6308419;20;3580454;-44
2023/07/06 01:11:58;;;;;;;;;23.33;21.67;;;;;20.24;100.00;99384.34;6282753;20;3589837;-44
2023/07/06 01:14:27;;;;;;;;;29.33;27.00;;;;;20.13;100.00;99385.47;6282392;20;3576289;-44
2023/07/06 01:17:24;;;;;;;;;29.67;26.00;;;;;20.23;100.00;99393.53;6282169;20;3598198;-44
2023/07/06 01:20:22;;;;;;;;;25.67;25.67;;;;;20.25;100.00;99400.53;6280214;20;3598254;-46
2023/07/06 01:23:12;;;;;;;;;28.00;28.00;;;;;20.25;100.00;99397.81;6279822;20;3570247;-47
2023/07/06 01:26:19;;;;;;;;;28.33;27.00;;;;;20.27;100.00;99401.22;6282967;20;3579630;-47
2023/07/06 01:29:21;;;;;;;;;25.33;24.00;;;;;20.41;100.00;99402.47;6280769;20;3572220;-43
2023/07/06 01:32:01;;;;;;;;;26.00;23.00;;;;;20.46;100.00;99391.94;6278332;20;3582668;-45
2023/07/06 01:34:47;;;;;;;;;26.67;24.67;;;;;20.44;100.00;99387.66;6277405;20;3589963;-44
2023/07/06 01:37:37;;;;;;;;;26.67;23.67;;;;;20.34;100.00;99383.19;6275325;20;3604484;-42
2023/07/06 01:40:09;;;;;;;;;24.33;22.00;;;;;20.41;100.00;99388.84;6277675;20;3580635;-46
2023/07/06 01:42:42;;;;;;;;;22.67;20.33;;;;;20.42;99.50;99385.09;6277826;20;3569217;-44
2023/07/06 01:45:16;;;;;;;;;23.67;22.33;;;;;20.42;99.58;99385.09;6280520;20;3568058;-44
2023/07/06 01:47:49;;;;;;;;;23.00;22.33;;;;;20.15;100.00;99388.91;6276898;20;3580516;-45
2023/07/06 01:50:23;;;;;;;;;19.33;19.00;;;;;20.20;99.79;99386.53;6279919;20;3562778;-47
2023/07/06 01:53:00;;;;;;;;;19.00;19.00;;;;;20.08;100.00;99382.38;6269892;20;2831564;-48
2023/07/06 01:55:53;;;;;;;;;22.00;20.50;;;;;20.07;100.00;99376.09;6274951;20;2829553;-43
2023/07/06 01:58:39;;;;;;;;;24.00;19.00;;;;;20.12;99.22;99371.00;6272372;20;2836748;-44
2023/07/06 02:01:20;;;;;;;;;19.00;16.00;;;;;20.23;98.45;99367.13;6271963;20;2833660;-43
2023/07/06 02:03:50;;;;;;;;;16.00;16.00;;;;;20.23;97.63;99361.69;6268602;20;2820084;-44
2023/07/06 02:06:20;;;;;;;;;17.33;17.33;;;;;20.09;97.73;99357.72;6275207;20;3569094;-44
2023/07/06 02:08:50;;;;;;;;;13.67;13.67;;;;;20.15;96.78;99356.19;6278484;20;3536739;-45
2023/07/06 02:11:24;;;;;;;;;16.67;15.33;;;;;20.03;96.53;99363.78;6270050;20;3554425;-43
2023/07/06 02:13:52;;;;;;;;;18.67;14.00;;;;;20.11;96.14;99365.69;6310442;20;3544032;-43
2023/07/06 02:16:21;;;;;;;;;17.67;15.67;;;;;20.11;95.58;99371.16;6302672;20;3556916;-44
2023/07/06 02:18:49;;;;;;;;;16.67;15.67;;;;;20.00;96.35;99375.03;6313234;20;3556503;-43
2023/07/06 02:21:17;;;;;;;;;15.33;14.33;;;;;20.00;96.30;99374.19;6312682;20;3544143;-43
2023/07/06 02:23:45;;;;;;;;;15.33;14.00;;;;;20.13;94.76;99374.56;6312936;20;2489866;-45
2023/07/06 02:26:13;;;;;;;;;15.00;11.00;;;;;20.05;95.12;99371.81;6316147;20;3509645;-43
2023/07/06 02:28:42;;;;;;;;;11.67;11.67;;;;;20.04;94.51;99364.66;6311102;20;3523046;-44
2023/07/06 02:31:12;;;;;;;;;14.29;14.29;;;;;19.95;95.45;99367.31;6312389;20;3513918;-44
2023/07/06 02:33:41;;;;;;;;;14.00;12.67;;;;;19.77;96.95;99358.38;6315113;20;2490002;-46
2023/07/06 02:36:11;;;;;;;;;13.50;13.50;;;;;19.76;96.38;99373.03;6311053;20;2798240;-44
2023/07/06 02:38:39;;;;;;;;;12.00;12.00;;;;;19.81;96.65;99362.50;6279987;20;3511839;-43
2023/07/06 02:41:07;;;;;;;;;11.67;10.33;;;;;19.87;95.89;99363.72;6315655;20;2781568;-44
2023/07/06 02:43:36;;;;;;;;;14.33;12.67;;;;;19.75;96.53;99368.59;6309943;20;3501415;-45
2023/07/06 02:46:04;;;;;;;;;11.67;11.67;;;;;19.84;95.78;99359.44;6284807;20;2784672;-43
2023/07/06 02:48:32;;;;;;;;;12.00;12.00;;;;;19.81;95.31;99372.53;6313989;20;3506717;-44
2023/07/06 02:51:00;;;;;;;;;12.67;12.33;;;;;19.70;95.75;99374.53;6311793;20;3521103;-43
2023/07/06 02:53:29;;;;;;;;;15.00;14.00;;;;;19.78;95.60;99381.91;6310993;20;3532680;-44
2023/07/06 02:55:58;;;;;;;;;10.67;10.67;;;;;19.83;94.72;99375.97;6280814;20;3518066;-45
2023/07/06 02:58:27;;;;;;;;;16.00;12.33;;;;;19.72;95.21;99372.50;6283027;20;3530455;-43
2023/07/06 03:00:55;;;;;;;;;13.00;13.00;;;;;19.68;95.37;99375.69;6311393;20;3508353;-43
2023/07/06 03:03:26;;;;;;;;;15.00;13.67;;;;;19.54;95.53;99388.00;6282810;20;2806586;-44
2023/07/06 03:05:54;;;;;;;;;12.33;12.33;;;;;19.63;95.11;99378.84;6311153;20;2483690;-45
2023/07/06 03:08:23;;;;;;;;;11.00;11.00;;;;;19.53;95.86;99384.41;6310887;20;3500403;-44
2023/07/06 03:10:53;;;;;;;;;13.33;10.33;;;;;19.79;94.22;99389.03;6311366;20;2485839;-44
2023/07/06 03:13:21;;;;;;;;;15.50;14.00;;;;;19.59;95.25;99382.94;6313185;20;2802366;-43
2023/07/06 03:15:52;;;;;;;;;13.00;13.00;;;;;19.76;94.94;99389.38;6278876;20;3516943;-44
2023/07/06 03:18:21;;;;;;;;;14.33;13.33;;;;;19.89;93.72;99389.78;6281557;20;3517975;-44
2023/07/06 03:20:49;;;;;;;;;11.00;11.00;;;;;19.87;94.20;99394.53;6314541;20;2794122;-43
2023/07/06 03:23:18;;;;;;;;;10.00;10.00;;;;;19.75;94.42;99393.13;6311268;20;3507606;-44
2023/07/06 03:25:52;;;;;;;;;14.50;14.50;;;;;19.73;95.07;99400.59;6308685;20;2810666;-45
2023/07/06 03:28:23;;;;;;;;;12.33;12.33;;;;;19.66;96.32;99386.75;6282356;20;2796088;-44
2023/07/06 03:30:56;;;;;;;;;15.00;13.50;;;;;19.69;95.35;99388.28;6309240;20;2800432;-43
2023/07/06 03:33:25;;;;;;;;;13.67;13.67;;;;;19.80;94.73;99385.31;6277306;20;3520297;-44
2023/07/06 03:35:55;;;;;;;;;12.00;12.00;;;;;19.79;94.76;99394.50;6308628;20;3535756;-45
2023/07/06 03:38:27;;;;;;;;;14.33;13.00;;;;;19.86;93.67;99401.00;6279212;20;3505603;-47
2023/07/06 03:40:55;;;;;;;;;12.33;11.00;;;;;19.76;94.15;99399.41;6312226;20;3510681;-42
2023/07/06 03:43:24;;;;;;;;;11.40;11.00;;;;;19.84;93.36;99394.88;6201489;20;3507552;-45
2023/07/06 03:45:52;;;;;;;;;15.67;12.67;;;;;19.79;94.58;99394.50;6312645;20;2490187;-43
2023/07/06 03:48:21;;;;;;;;;11.00;11.00;;;;;19.71;93.44;99402.59;6318109;20;2791974;-44
2023/07/06 03:50:52;;;;;;;;;10.67;10.67;;;;;19.71;94.60;99402.59;6312751;20;3512858;-44
2023/07/06 03:53:21;;;;;;;;;8.67;8.00;;;;;19.94;92.96;99403.78;6312487;20;2746177;-43
2023/07/06 03:55:53;;;;;;;;;12.33;11.00;;;;;19.97;92.85;99407.22;6314167;20;3520147;-43
2023/07/06 03:58:22;;;;;;;;;14.67;10.00;;;;;19.92;92.97;99400.34;6312883;20;3514607;-44
2023/07/06 04:00:50;;;;;;;;;12.67;11.00;;;;;19.98;92.37;99404.31;6314243;20;3514932;-42
2023/07/06 04:03:19;;;;;;;;;12.67;11.67;;;;;19.95;93.07;99410.09;6310672;20;3509743;-42
2023/07/06 04:05:48;;;;;;;;;14.33;12.00;;;;;19.87;93.41;99412.75;6311008;20;3528490;-43
2023/07/06 04:08:21;;;;;;;;;8.33;8.33;;;;;20.03;92.93;99417.44;6314316;20;3461685;-44
2023/07/06 04:10:49;;;;;;;;;9.67;9.67;;;;;20.08;92.43;99420.53;6312625;20;3485695;-43
2023/07/06 04:13:17;;;;;;;;;10.00;10.00;;;;;20.11;92.27;99414.75;6311822;20;3500373;-45
2023/07/06 04:15:48;;;;;;;;;11.33;10.67;;;;;20.15;92.76;99416.16;6312491;20;2492131;-43
2023/07/06 04:18:16;;;;;;;;;14.67;11.00;;;;;20.04;92.86;99425.47;6311331;20;3517043;-44
2023/07/06 04:20:45;;;;;;;;;10.00;10.00;;;;;20.27;92.57;99423.03;6317642;20;2781557;-44
2023/07/06 04:25:59;;;;;;;;;11.67;10.33;;;;;20.25;92.68;99427.81;6306569;20;3512819;-43
2023/07/06 04:28:27;;;;;;;;;13.00;12.00;;;;;20.20;93.85;99424.72;6313380;20;3534647;-43
2023/07/06 04:30:55;;;;;;;;;13.67;9.00;;;;;20.29;93.02;99439.22;6318773;20;2773358;-44
2023/07/06 04:33:23;;;;;;;;;11.33;9.00;;;;;20.30;92.99;99446.38;6312466;20;3494046;-44
2023/07/06 04:35:52;;;;;;;;;10.00;10.00;;;;;20.31;93.31;99454.41;6312110;20;3504418;-45
2023/07/06 04:38:22;;;;;;;;;11.00;10.67;;;;;20.31;93.49;99459.88;6312076;20;2792028;-42
2023/07/06 04:40:53;;;;;;;;;11.00;11.00;;;;;20.42;93.74;99476.97;6312223;20;3519130;-42
2023/07/06 04:43:22;;;;;;;;;12.00;12.00;;;;;20.67;92.29;99464.28;6308425;20;3507562;-45
2023/07/06 04:45:50;;;;;;;;;11.67;9.33;;;;;21.01;90.63;99462.38;6314117;20;2783653;-45
2023/07/06 04:48:19;;;;;;;;;11.20;10.20;;;;;20.91;91.53;99461.66;6337121;20;2788829;-46
2023/07/06 04:50:54;;;;;;;;;10.00;10.00;;;;;21.09;91.79;99464.28;6287258;20;2774394;-45
2023/07/06 04:53:23;;;;;;;;;11.00;8.67;;;;;21.29;90.07;99463.97;6318442;20;2766911;-43
2023/07/06 04:55:51;;;;;;;;;9.67;9.67;;;;;21.55;88.06;99467.41;6310859;20;3484605;-42
2023/07/06 04:58:20;;;;;;;;;9.00;9.00;;;;;21.67;87.29;99468.78;6308705;20;3464444;-45
2023/07/06 05:00:50;;;;;;;;;8.67;8.67;;;;;21.51;86.96;99468.78;6311220;20;2744071;-43
2023/07/06 05:03:18;;;;;;;;;10.33;9.33;;;;;21.87;85.47;99468.44;6318949;20;2774270;-44
2023/07/06 05:05:46;;;;;;;;;10.00;10.00;;;;;21.99;84.45;99467.06;6313045;20;2779421;-44
2023/07/06 05:08:21;;;;;;;;;10.67;8.67;;;;;21.90;84.10;99473.53;6312120;20;2769172;-43
2023/07/06 05:10:52;;;;;;;;;11.00;8.67;;;;;21.87;83.61;99472.00;6312033;20;2762816;-43
2023/07/06 05:13:22;;;;;;;;;7.67;7.67;;;;;22.00;82.68;99476.09;6319156;20;2743075;-44
2023/07/06 05:15:52;;;;;;;;;7.60;7.60;;;;;21.94;84.69;99474.06;6333943;20;2727355;-44
2023/07/06 05:18:22;;;;;;;;;5.60;4.60;;;;;22.20;82.90;99473.88;6334265;20;2748231;-44
2023/07/06 05:20:56;;;;;;;;;7.00;7.00;;;;;22.13;82.48;99485.47;6279897;20;2730498;-43
2023/07/06 05:23:29;;;;;;;;;10.67;9.67;;;;;22.45;82.04;99480.97;6312399;20;2786986;-44
2023/07/06 05:26:03;;;;;;;;;8.00;7.60;;;;;22.47;81.25;99480.81;6336568;20;2757571;-43
2023/07/06 05:28:33;;;;;;;;;10.20;9.20;;;;;22.24;82.23;99477.97;6305449;20;2780662;-45
2023/07/06 05:31:03;;;;;;;;;6.20;6.20;;;;;22.46;81.28;99488.16;6303662;20;2742141;-43
2023/07/06 05:33:32;;;;;;;;;9.33;8.00;;;;;22.64;81.66;99487.91;6279342;20;3475292;-47
2023/07/06 05:36:01;;;;;;;;;8.67;8.33;;;;;22.66;80.87;99487.75;6313027;20;2747159;-43
2023/07/06 05:38:30;;;;;;;;;8.80;7.80;;;;;22.49;80.28;99485.09;6338683;20;2754657;-43
2023/07/06 05:41:03;;;;;;;;;7.67;6.67;;;;;22.52;81.48;99487.47;6282929;20;2748215;-44
2023/07/06 05:43:33;;;;;;;;;8.00;8.00;;;;;22.58;81.22;99499.56;6312332;20;2751559;-44
2023/07/06 05:46:02;;;;;;;;;5.40;5.40;;;;;22.42;82.05;99514.16;6334642;20;2750349;-44
2023/07/06 05:48:33;;;;;;;;;8.00;7.00;;;;;22.10;85.00;99542.41;6281670;20;2733642;-44
2023/07/06 05:51:01;;;;;;;;;8.67;8.33;;;;;21.69;86.15;99558.78;6311092;20;2750475;-46
2023/07/06 05:53:29;;;;;;;;;8.33;7.33;;;;;21.69;86.93;99577.91;6315272;20;2743197;-45
2023/07/06 05:55:59;;;;;;;;;12.33;9.00;;;;;21.27;88.62;99579.69;6312267;20;3496579;-43
2023/07/06 05:58:28;;;;;;;;;9.60;7.20;;;;;21.13;90.32;99579.47;6340273;20;2771113;-42
2023/07/06 06:00:56;;;;;;;;;9.00;9.00;;;;;21.01;91.24;99589.81;6286617;20;2755528;-42
2023/07/06 06:03:25;;;;;;;;;12.60;9.20;;;;;20.43;93.51;99583.16;6339873;20;2787916;-43
2023/07/06 06:05:54;;;;;;;;;9.00;7.67;;;;;20.24;94.19;99581.47;6285576;20;2751504;-45
2023/07/06 06:08:24;;;;;;;;;6.00;6.00;;;;;20.28;94.78;99591.06;6337109;20;2741081;-43
2023/07/06 06:10:55;;;;;;;;;7.00;7.00;;;;;20.15;95.21;99590.63;6338660;20;2745233;-43
2023/07/06 06:13:26;;;;;;;;;6.00;6.00;;;;;19.85;96.57;99595.50;6300651;20;2744487;-43
2023/07/06 06:15:57;;;;;;;;;6.00;5.60;;;;;19.62;98.53;99605.09;6301728;20;2746120;-42
2023/07/06 06:18:26;;;;;;;;;6.60;5.80;;;;;19.43;100.00;99623.28;6302566;20;2740919;-43
2023/07/06 06:20:58;;;;;;;;;5.00;4.60;;;;;19.35;100.00;99625.91;6324210;20;2747164;-44
2023/07/06 06:23:27;;;;;;;;;7.60;6.40;;;;;19.05;100.00;99641.53;6335990;20;2737790;-43
2023/07/06 06:25:55;;;;;;;;;7.00;6.00;;;;;18.73;100.00;99646.50;6310669;20;2739929;-45
2023/07/06 06:28:23;;;;;;;;;8.00;8.00;;;;;18.68;100.00;99637.91;6319877;20;2737847;-44
2023/07/06 06:30:51;;;;;;;;;10.67;8.00;;;;;18.64;100.00;99624.63;6274360;20;2763841;-47
2023/07/06 06:33:19;;;;;;;;;12.00;8.00;;;;;18.35;100.00;99618.38;6316526;20;2770284;-43
2023/07/06 06:35:48;;;;;;;;;13.20;9.00;;;;;18.40;100.00;99619.69;6335007;20;2780614;-43
2023/07/06 06:38:17;;;;;;;;;11.00;10.67;;;;;18.55;100.00;99602.88;6280840;20;2790262;-43
2023/07/06 06:40:44;;;;;;;;;11.00;10.00;;;;;18.30;100.00;99607.09;6318523;20;2675305;-45
2023/07/06 06:43:11;;;;;;;;;10.50;9.50;;;;;18.51;100.00;99593.28;6284869;20;2778574;-43
2023/07/06 06:45:40;;;;;;;;;10.67;9.33;;;;;18.56;100.00;99574.69;6279370;20;3500366;-45
2023/07/06 06:48:08;;;;;;;;;12.00;11.00;;;;;18.79;100.00;99565.16;6310874;20;3548220;-44
2023/07/06 06:50:36;;;;;;;;;9.00;9.00;;;;;18.82;100.00;99561.28;6313414;20;2773336;-46
2023/07/06 06:53:04;;;;;;;;;8.00;7.67;;;;;18.94;100.00;99554.66;6310881;20;2748259;-44
2023/07/06 06:55:32;;;;;;;;;11.00;11.00;;;;;19.00;100.00;99555.91;6314672;20;2788902;-43
2023/07/06 06:58:03;;;;;;;;;12.00;9.00;;;;;18.91;100.00;99559.56;6308561;20;3491958;-43
2023/07/06 07:00:31;;;;;;;;;9.67;8.67;;;;;18.94;100.00;99554.66;6308557;20;2756543;-44
2023/07/06 07:02:59;;;;;;;;;11.33;9.33;;;;;18.81;100.00;99562.31;6314726;20;2776357;-43
2023/07/06 07:05:27;;;;;;;;;10.00;9.67;;;;;18.89;100.00;99570.56;6308207;20;2780489;-43
2023/07/06 07:07:55;;;;;;;;;9.67;9.67;;;;;18.78;100.00;99574.34;6310550;20;3501349;-43
2023/07/06 07:10:24;;;;;;;;;10.33;8.00;;;;;18.73;100.00;99586.66;6317296;20;2762852;-43
2023/07/06 07:12:53;;;;;;;;;13.00;8.40;;;;;18.75;100.00;99590.97;6340007;20;2760811;-44
2023/07/06 07:15:21;;;;;;;;;11.33;9.00;;;;;18.75;100.00;99601.00;6291909;20;2755947;-43
2023/07/06 07:17:51;;;;;;;;;13.33;12.33;;;;;18.68;100.00;99599.84;6311433;20;3516161;-43
2023/07/06 07:20:19;;;;;;;;;9.33;9.00;;;;;18.82;100.00;99585.78;6322595;20;2760910;-45
2023/07/06 07:22:47;;;;;;;;;13.33;8.67;;;;;18.67;100.00;99579.97;6315634;20;2758687;-43
2023/07/06 07:25:17;;;;;;;;;11.00;9.00;;;;;18.79;100.00;99578.78;6324165;20;2764905;-46
2023/07/06 07:27:46;;;;;;;;;14.60;10.00;;;;;18.62;100.00;99572.25;6310786;20;2787860;-43
2023/07/06 07:30:14;;;;;;;;;9.67;9.67;;;;;18.49;100.00;99560.84;6283732;20;2771147;-46
2023/07/06 07:32:42;;;;;;;;;10.00;10.00;;;;;18.44;100.00;99565.84;6319947;20;2787802;-44
2023/07/06 07:35:09;;;;;;;;;10.00;9.50;;;;;18.31;100.00;99570.75;6291030;20;2784074;-46
2023/07/06 07:37:38;;;;;;;;;10.00;10.00;;;;;18.53;100.00;99574.97;6280971;20;3500391;-47
2023/07/06 07:40:07;;;;;;;;;9.00;9.00;;;;;18.66;100.00;99572.78;6313566;20;3463914;-47
2023/07/06 07:42:36;;;;;;;;;11.67;9.67;;;;;18.68;100.00;99575.38;6314030;20;2787848;-45
2023/07/06 07:45:05;;;;;;;;;9.50;9.50;;;;;18.64;100.00;99578.38;6318396;20;2768024;-46
2023/07/06 07:47:33;;;;;;;;;12.50;10.00;;;;;18.63;100.00;99576.66;6289274;20;2790109;-46
2023/07/06 07:50:05;;;;;;;;;10.67;10.67;;;;;18.68;100.00;99583.53;6285348;20;3514937;-48
2023/07/06 07:52:34;;;;;;;;;11.67;10.67;;;;;18.92;100.00;99588.47;6314323;20;2791964;-46
2023/07/06 07:55:02;;;;;;;;;10.67;9.00;;;;;19.01;100.00;99593.88;6321561;20;2763853;-46
2023/07/06 07:57:31;;;;;;;;;10.67;10.67;;;;;19.04;100.00;99596.28;6311003;20;3507685;-47
2023/07/06 07:59:59;;;;;;;;;10.67;10.67;;;;;19.08;100.00;99589.50;6309473;20;3522203;-46
2023/07/06 08:02:28;;;;;;;;;15.00;12.50;;;;;19.03;100.00;99597.28;6314970;20;2491960;-45
2023/07/06 08:04:57;;;;;;;;;10.67;10.67;;;;;19.13;100.00;99588.22;6281252;20;3520076;-44
2023/07/06 08:07:25;;;;;;;;;12.00;10.00;;;;;19.34;100.00;99602.41;6309202;20;3514913;-44
2023/07/06 08:09:57;;;;;;;;;9.67;9.67;;;;;19.59;100.00;99605.38;6311558;20;2783787;-46
2023/07/06 08:12:25;;;;;;;;;12.00;11.00;;;;;19.66;100.00;99607.38;6312938;20;3512814;-44
2023/07/06 08:14:53;;;;;;;;;13.67;12.67;;;;;19.55;100.00;99599.41;6318820;20;2787129;-48
2023/07/06 08:17:21;;;;;;;;;9.00;7.67;;;;;19.48;100.00;99606.47;6315028;20;2745084;-49
2023/07/06 08:19:52;;;;;;;;;10.67;8.67;;;;;19.71;100.00;99617.81;6317189;20;2772161;-46
2023/07/06 08:22:40;;;;;;;;;9.67;9.67;;;;;19.64;100.00;99608.50;6314478;20;3499612;-46
2023/07/06 08:25:08;;;;;;;;;12.67;11.33;;;;;19.96;100.00;99605.31;6318384;20;2794060;-44
2023/07/06 08:27:39;;;;;;;;;11.00;11.00;;;;;20.15;100.00;99613.28;6312381;20;3460720;-45
2023/07/06 08:30:08;;;;;;;;;10.67;10.67;;;;;20.54;100.00;99614.81;6299296;20;3515890;-49
2023/07/06 08:32:37;;;;;;;;;11.67;11.67;;;;;20.71;100.00;99608.41;6311142;20;2794226;-44
2023/07/06 08:35:06;;;;;;;;;11.00;9.33;;;;;20.90;100.00;99604.59;6292964;20;3501546;-43
2023/07/06 08:37:35;;;;;;;;;11.33;11.33;;;;;21.07;100.00;99611.00;6300685;20;3515941;-44
2023/07/06 08:40:04;;;;;;;;;11.67;11.67;;;;;21.57;100.00;99609.34;6271773;20;2804958;-45
2023/07/06 08:42:32;;;;;;;;;10.67;10.67;;;;;21.78;100.00;99606.97;6308124;20;2790032;-44
2023/07/06 08:45:02;;;;;;;;;10.00;10.00;;;;;22.03;100.00;99604.25;6299163;20;3517995;-47
2023/07/06 08:47:30;;;;;;;;;9.67;9.00;;;;;22.02;100.00;99597.94;6301415;20;2758638;-43
2023/07/06 08:50:02;;;;;;;;;13.00;11.00;;;;;21.97;100.00;99597.59;6300523;20;3512769;-46
2023/07/06 08:52:31;;;;;;;;;11.00;11.00;;;;;22.31;100.00;99599.34;6267583;20;3531510;-47
2023/07/06 08:55:00;;;;;;;;;10.00;10.00;;;;;22.63;100.00;99594.84;6266634;20;3514869;-48
2023/07/06 08:57:30;;;;;;;;;8.67;7.67;;;;;22.05;100.00;99586.66;6301587;20;2748204;-46
2023/07/06 08:59:59;;;;;;;;;11.33;11.33;;;;;22.68;99.27;99595.19;6302223;20;3512784;-45
2023/07/06 09:02:31;;;;;;;;;8.67;8.67;;;;;23.98;96.54;99592.84;6298368;20;2740019;-45
2023/07/06 09:05:11;;;;;;;;;10.33;10.33;;;;;23.84;93.42;99589.88;6297992;20;3499238;-47
2023/07/06 09:07:44;;;;;;;;;10.00;8.00;;;;;23.72;92.81;99583.09;6300064;20;2766968;-43
2023/07/06 09:10:17;;;;;;;;;12.33;11.33;;;;;23.88;94.26;99587.59;6305388;20;2793105;-43
2023/07/06 09:12:54;;;;;;;;;9.00;9.00;;;;;23.57;93.19;99593.13;6301742;20;3472147;-44
2023/07/06 09:15:29;;;;;;;;;10.67;10.67;;;;;22.96;96.26;99588.28;6300912;20;3507702;-46
2023/07/06 09:18:03;;;;;;;;;9.67;8.33;;;;;22.95;94.84;99585.66;6302173;20;2759746;-46
2023/07/06 09:20:35;;;;;;;;;11.00;10.00;;;;;23.21;94.13;99588.16;6306566;20;2783690;-45
2023/07/06 09:23:05;;;;;;;;;10.50;10.00;;;;;24.24;90.98;99585.09;6313212;20;2673232;-42
2023/07/06 09:25:42;;;;;;;;;13.67;11.67;;;;;24.59;88.42;99588.19;6305701;20;2786267;-44
2023/07/06 09:28:19;;;;;;;;;13.33;11.67;;;;;24.98;88.76;99593.44;6309716;20;3513801;-43
2023/07/06 09:30:48;;;;;;;;;10.67;10.67;;;;;25.37;86.66;99585.94;6305738;20;3517998;-46
2023/07/06 09:33:20;;;;;;;;;11.00;11.00;;;;;24.48;86.23;99577.69;6274228;20;2600365;-45
2023/07/06 09:35:53;;;;;;;;;10.33;9.67;;;;;24.50;90.50;99573.72;6304915;20;3498252;-43
2023/07/06 09:38:24;;;;;;;;;10.00;10.00;;;;;25.03;86.85;99573.63;6271492;20;3512869;-43
2023/07/06 09:40:54;;;;;;;;;10.00;10.00;;;;;26.23;86.51;99575.03;6304794;20;3499715;-43
2023/07/06 09:43:29;;;;;;;;;10.00;9.00;;;;;25.76;83.20;99573.69;6307734;20;2766001;-47
2023/07/06 09:46:00;;;;;;;;;14.00;10.67;;;;;25.81;84.43;99572.06;6305920;20;3513837;-42
2023/07/06 09:48:37;;;;;;;;;11.67;11.67;;;;;25.47;83.69;99566.41;6308666;20;2786904;-45
2023/07/06 09:51:25;;;;;;;;;11.00;11.00;;;;;25.21;82.73;99569.69;6309278;20;3512908;-44
2023/07/06 09:54:02;;;;;;;;;12.00;10.33;;;;;25.63;84.48;99568.91;6304141;20;3507667;-45
2023/07/06 09:56:31;;;;;;;;;9.67;9.67;;;;;25.88;81.28;99574.88;6309541;20;2769633;-45
2023/07/06 09:59:00;;;;;;;;;11.67;9.67;;;;;25.74;82.36;99584.88;6304315;20;3507560;-45
2023/07/06 10:01:48;;;;;;;;;12.33;10.33;;;;;24.73;85.04;99584.63;6304519;20;3515892;-47
2023/07/06 10:04:38;;;;;;;;;9.67;9.00;;;;;25.45;85.51;99588.56;6305584;20;3480106;-47
2023/07/06 10:07:24;;;;;;;;;8.33;8.00;;;;;25.45;82.35;99583.06;6307910;20;2753871;-45
2023/07/06 10:10:34;;;;;;;;;10.67;9.00;;;;;25.81;80.85;99588.56;6307347;20;3488826;-47
2023/07/06 10:13:43;;;;;;;;;10.00;10.00;;;;;26.27;81.45;99587.31;6301940;20;3518001;-45
2023/07/06 10:16:45;;;;;;;;;8.33;8.00;;;;;26.28;77.75;99578.88;6305717;20;2744048;-45
2023/07/06 10:19:29;;;;;;;;;10.67;9.00;;;;;26.82;76.43;99579.28;6305704;20;3489857;-47
2023/07/06 10:22:26;;;;;;;;;10.33;9.00;;;;;26.71;77.69;99583.47;6302799;20;3486766;-45
2023/07/06 10:25:02;;;;;;;;;11.00;10.00;;;;;25.46;82.08;99583.91;6305819;20;2785783;-45
2023/07/06 10:27:39;;;;;;;;;8.00;8.00;;;;;25.36;80.11;99587.00;6304013;20;2744067;-46
2023/07/06 10:30:20;;;;;;;;;9.67;9.00;;;;;25.37;81.94;99585.94;6310546;20;2763896;-46
2023/07/06 10:32:54;;;;;;;;;12.33;10.00;;;;;26.76;77.50;99603.00;6305698;20;3500276;-44
2023/07/06 10:35:35;;;;;;;;;6.33;6.33;;;;;27.19;74.20;99608.34;6311779;20;2750701;-47
2023/07/06 10:38:03;;;;;;;;;9.33;8.33;;;;;26.43;75.57;99606.28;6301060;20;2762808;-46
2023/07/06 10:40:31;;;;;;;;;7.67;7.67;;;;;25.95;77.97;99606.06;6306588;20;2739871;-45
2023/07/06 10:43:14;;;;;;;;;8.00;8.00;;;;;26.77;74.85;99606.59;6307612;20;2744040;-49
2023/07/06 10:45:47;;;;;;;;;9.00;8.67;;;;;27.19;74.70;99611.09;6309455;20;3471297;-46
2023/07/06 10:48:31;;;;;;;;;7.67;7.67;;;;;27.72;71.51;99608.56;6309901;20;2745125;-46
2023/07/06 10:51:22;;;;;;;;;7.00;6.67;;;;;27.72;72.61;99603.03;6318284;20;2753540;-48
2023/07/06 10:54:20;;;;;;;;;9.33;7.00;;;;;28.52;72.64;99608.75;6311202;20;2760697;-47
2023/07/06 10:57:02;;;;;;;;;7.33;6.00;;;;;27.65;71.71;99596.69;6312300;20;2739985;-44
2023/07/06 10:59:48;;;;;;;;;7.00;6.00;;;;;27.24;74.28;99605.00;6316137;20;2742017;-45
2023/07/06 11:02:37;;;;;;;;;9.00;8.00;;;;;27.08;75.09;99604.25;6318167;20;2753475;-46
2023/07/06 11:05:28;;;;;;;;;8.00;8.00;;;;;27.63;72.47;99608.97;6308543;20;2744040;-45
2023/07/06 11:08:02;;;;;;;;;9.33;9.00;;;;;26.67;72.28;99609.69;6310465;20;2757626;-48
2023/07/06 11:10:39;;;;;;;;;9.33;7.33;;;;;26.97;74.77;99604.81;6320040;20;2757703;-46
2023/07/06 11:13:12;;;;;;;;;7.67;7.67;;;;;26.60;75.83;99603.31;6319982;20;2742046;-45
2023/07/06 11:15:48;;;;;;;;;8.67;8.67;;;;;26.92;74.42;99599.06;6318232;20;2755499;-45
2023/07/06 11:18:44;;;;;;;;;9.00;7.67;;;;;26.75;75.19;99595.75;6318034;20;2755607;-46
2023/07/06 11:21:38;;;;;;;;;11.33;6.67;;;;;26.46;74.71;99596.78;6309584;20;3491916;-48
2023/07/06 11:24:16;;;;;;;;;8.00;7.00;;;;;26.63;74.36;99591.88;6312723;20;2752390;-47
2023/07/06 11:26:51;;;;;;;;;8.33;8.00;;;;;26.41;73.67;99593.78;6316879;20;2740935;-46
2023/07/06 11:29:26;;;;;;;;;7.00;7.00;;;;;26.25;75.37;99600.41;6314121;20;2756539;-46
2023/07/06 11:32:03;;;;;;;;;8.00;7.00;;;;;26.20;74.94;99597.44;6317508;20;2744030;-51